sensor_id;sensor_type;location;lat;lon;timestamp;P1;durP1;ratioP1;P2;durP2;ratioP2
76439;SDS011;65274;44.982;20.060;2022-12-18T00:01:19;37.55;;;18.83;;
76439;SDS011;65274;44.982;20.060;2022-12-18T00:03:46;36.03;;;18.38;;
76439;SDS011;65274;44.982;20.060;2022-12-18T00:06:13;33.47;;;18.52;;
76439;SDS011;65274;44.982;20.060;2022-12-18T00:08:40;36.28;;;19.98;;
76439;SDS011;65274;44.982;20.060;2022-12-18T00:11:07;39.72;;;19.00;;
76439;SDS011;65274;44.982;20.060;2022-12-18T00:13:33;37.10;;;18.13;;
76439;SDS011;65274;44.982;20.060;2022-12-18T00:16:04;38.88;;;19.50;;
76439;SDS011;65274;44.982;20.060;2022-12-18T00:18:30;35.38;;;19.42;;
76439;SDS011;65274;44.982;20.060;2022-12-18T00:21:00;42.88;;;20.45;;
76439;SDS011;65274;44.982;20.060;2022-12-18T00:23:27;42.13;;;20.40;;
76439;SDS011;65274;44.982;20.060;2022-12-18T00:25:53;42.13;;;20.75;;
76439;SDS011;65274;44.982;20.060;2022-12-18T00:28:19;42.72;;;22.30;;
76439;SDS011;65274;44.982;20.060;2022-12-18T00:30:45;37.22;;;20.42;;
76439;SDS011;65274;44.982;20.060;2022-12-18T00:33:11;40.38;;;19.73;;
76439;SDS011;65274;44.982;20.060;2022-12-18T00:35:37;40.60;;;21.90;;
76439;SDS011;65274;44.982;20.060;2022-12-18T00:38:03;38.72;;;19.85;;
76439;SDS011;65274;44.982;20.060;2022-12-18T00:40:31;36.35;;;18.75;;
76439;SDS011;65274;44.982;20.060;2022-12-18T00:42:57;40.30;;;20.73;;
76439;SDS011;65274;44.982;20.060;2022-12-18T00:45:27;38.38;;;18.60;;
76439;SDS011;65274;44.982;20.060;2022-12-18T00:47:54;39.97;;;19.67;;
76439;SDS011;65274;44.982;20.060;2022-12-18T00:50:20;39.85;;;19.13;;
76439;SDS011;65274;44.982;20.060;2022-12-18T00:52:46;34.70;;;17.25;;
76439;SDS011;65274;44.982;20.060;2022-12-18T00:55:13;29.80;;;16.52;;
76439;SDS011;65274;44.982;20.060;2022-12-18T00:57:39;34.20;;;18.80;;
76439;SDS011;65274;44.982;20.060;2022-12-18T01:00:06;39.30;;;19.35;;
76439;SDS011;65274;44.982;20.060;2022-12-18T01:02:32;34.55;;;16.67;;
76439;SDS011;65274;44.982;20.060;2022-12-18T01:04:58;30.95;;;16.35;;
76439;SDS011;65274;44.982;20.060;2022-12-18T01:07:24;30.38;;;16.52;;
76439;SDS011;65274;44.982;20.060;2022-12-18T01:09:50;32.85;;;16.83;;
76439;SDS011;65274;44.982;20.060;2022-12-18T01:12:16;34.47;;;17.35;;
76439;SDS011;65274;44.982;20.060;2022-12-18T01:14:43;31.17;;;17.10;;
76439;SDS011;65274;44.982;20.060;2022-12-18T01:17:09;33.08;;;17.27;;
76439;SDS011;65274;44.982;20.060;2022-12-18T01:19:35;31.83;;;16.58;;
76439;SDS011;65274;44.982;20.060;2022-12-18T01:22:01;33.53;;;18.00;;
76439;SDS011;65274;44.982;20.060;2022-12-18T01:24:27;32.15;;;16.27;;
76439;SDS011;65274;44.982;20.060;2022-12-18T01:26:53;37.13;;;17.77;;
76439;SDS011;65274;44.982;20.060;2022-12-18T01:29:19;29.77;;;15.98;;
76439;SDS011;65274;44.982;20.060;2022-12-18T01:31:45;30.70;;;16.48;;
76439;SDS011;65274;44.982;20.060;2022-12-18T01:34:12;33.78;;;16.38;;
76439;SDS011;65274;44.982;20.060;2022-12-18T01:36:39;36.20;;;17.30;;
76439;SDS011;65274;44.982;20.060;2022-12-18T01:39:06;32.22;;;18.45;;
76439;SDS011;65274;44.982;20.060;2022-12-18T01:41:33;35.78;;;17.90;;
76439;SDS011;65274;44.982;20.060;2022-12-18T01:47:03;37.70;;;18.92;;
76439;SDS011;65274;44.982;20.060;2022-12-18T01:49:29;35.05;;;16.58;;
76439;SDS011;65274;44.982;20.060;2022-12-18T01:51:55;34.92;;;18.35;;
76439;SDS011;65274;44.982;20.060;2022-12-18T01:54:21;35.03;;;18.00;;
76439;SDS011;65274;44.982;20.060;2022-12-18T01:56:47;34.60;;;16.63;;
76439;SDS011;65274;44.982;20.060;2022-12-18T01:59:13;37.10;;;18.23;;
76439;SDS011;65274;44.982;20.060;2022-12-18T02:01:39;37.28;;;20.13;;
76439;SDS011;65274;44.982;20.060;2022-12-18T02:06:46;37.15;;;17.42;;
76439;SDS011;65274;44.982;20.060;2022-12-18T02:09:18;33.40;;;16.98;;
76439;SDS011;65274;44.982;20.060;2022-12-18T02:14:23;39.30;;;19.23;;
76439;SDS011;65274;44.982;20.060;2022-12-18T02:19:53;36.30;;;19.90;;
76439;SDS011;65274;44.982;20.060;2022-12-18T02:27:44;37.47;;;18.25;;
76439;SDS011;65274;44.982;20.060;2022-12-18T02:30:11;35.00;;;18.58;;
76439;SDS011;65274;44.982;20.060;2022-12-18T02:32:39;39.20;;;19.23;;
76439;SDS011;65274;44.982;20.060;2022-12-18T02:35:06;40.63;;;19.60;;
76439;SDS011;65274;44.982;20.060;2022-12-18T02:37:34;35.15;;;17.55;;
76439;SDS011;65274;44.982;20.060;2022-12-18T02:40:00;37.10;;;19.90;;
76439;SDS011;65274;44.982;20.060;2022-12-18T02:42:28;36.53;;;17.58;;
76439;SDS011;65274;44.982;20.060;2022-12-18T02:44:54;36.70;;;17.23;;
76439;SDS011;65274;44.982;20.060;2022-12-18T02:47:21;38.45;;;19.05;;
76439;SDS011;65274;44.982;20.060;2022-12-18T02:57:29;59.25;;;31.70;;
76439;SDS011;65274;44.982;20.060;2022-12-18T03:02:29;63.42;;;37.47;;
76439;SDS011;65274;44.982;20.060;2022-12-18T03:07:38;42.33;;;23.23;;
76439;SDS011;65274;44.982;20.060;2022-12-18T03:10:06;43.10;;;25.75;;
76439;SDS011;65274;44.982;20.060;2022-12-18T03:12:37;56.13;;;28.25;;
76439;SDS011;65274;44.982;20.060;2022-12-18T03:15:09;48.80;;;25.80;;
76439;SDS011;65274;44.982;20.060;2022-12-18T03:17:37;44.15;;;21.60;;
76439;SDS011;65274;44.982;20.060;2022-12-18T03:20:07;45.05;;;23.83;;
76439;SDS011;65274;44.982;20.060;2022-12-18T03:25:00;41.13;;;20.80;;
76439;SDS011;65274;44.982;20.060;2022-12-18T03:27:28;41.67;;;20.98;;
76439;SDS011;65274;44.982;20.060;2022-12-18T03:30:01;37.03;;;19.00;;
76439;SDS011;65274;44.982;20.060;2022-12-18T03:32:33;36.78;;;18.45;;
76439;SDS011;65274;44.982;20.060;2022-12-18T03:35:01;36.42;;;21.10;;
76439;SDS011;65274;44.982;20.060;2022-12-18T03:37:32;39.05;;;20.10;;
76439;SDS011;65274;44.982;20.060;2022-12-18T03:39:58;40.63;;;21.27;;
76439;SDS011;65274;44.982;20.060;2022-12-18T03:47:29;37.08;;;18.65;;
76439;SDS011;65274;44.982;20.060;2022-12-18T03:52:41;39.33;;;18.48;;
76439;SDS011;65274;44.982;20.060;2022-12-18T03:55:08;44.92;;;21.13;;
76439;SDS011;65274;44.982;20.060;2022-12-18T03:57:35;40.17;;;20.00;;
76439;SDS011;65274;44.982;20.060;2022-12-18T04:00:07;37.35;;;18.25;;
76439;SDS011;65274;44.982;20.060;2022-12-18T04:02:33;35.13;;;20.08;;
76439;SDS011;65274;44.982;20.060;2022-12-18T04:05:01;37.97;;;18.50;;
76439;SDS011;65274;44.982;20.060;2022-12-18T04:07:28;38.30;;;19.48;;
76439;SDS011;65274;44.982;20.060;2022-12-18T04:09:55;38.58;;;20.98;;
76439;SDS011;65274;44.982;20.060;2022-12-18T04:12:25;33.55;;;19.20;;
76439;SDS011;65274;44.982;20.060;2022-12-18T04:14:51;42.42;;;21.25;;
76439;SDS011;65274;44.982;20.060;2022-12-18T04:17:18;38.25;;;21.65;;
76439;SDS011;65274;44.982;20.060;2022-12-18T04:19:44;40.35;;;20.23;;
76439;SDS011;65274;44.982;20.060;2022-12-18T04:22:10;38.05;;;18.17;;
76439;SDS011;65274;44.982;20.060;2022-12-18T04:24:36;37.80;;;21.20;;
76439;SDS011;65274;44.982;20.060;2022-12-18T04:27:02;38.33;;;18.90;;
76439;SDS011;65274;44.982;20.060;2022-12-18T04:29:28;41.42;;;19.80;;
76439;SDS011;65274;44.982;20.060;2022-12-18T04:31:54;43.80;;;20.73;;
76439;SDS011;65274;44.982;20.060;2022-12-18T04:34:21;46.83;;;21.30;;
76439;SDS011;65274;44.982;20.060;2022-12-18T04:36:47;42.60;;;19.25;;
76439;SDS011;65274;44.982;20.060;2022-12-18T04:39:13;43.03;;;20.92;;
76439;SDS011;65274;44.982;20.060;2022-12-18T04:41:39;47.50;;;21.02;;
76439;SDS011;65274;44.982;20.060;2022-12-18T04:44:06;50.35;;;24.25;;
76439;SDS011;65274;44.982;20.060;2022-12-18T04:46:32;44.65;;;21.08;;
76439;SDS011;65274;44.982;20.060;2022-12-18T04:48:58;43.83;;;21.63;;
76439;SDS011;65274;44.982;20.060;2022-12-18T04:51:24;43.53;;;21.75;;
76439;SDS011;65274;44.982;20.060;2022-12-18T04:53:50;44.60;;;23.98;;
76439;SDS011;65274;44.982;20.060;2022-12-18T04:56:16;41.50;;;23.42;;
76439;SDS011;65274;44.982;20.060;2022-12-18T04:58:43;47.58;;;25.10;;
76439;SDS011;65274;44.982;20.060;2022-12-18T05:01:10;52.20;;;24.25;;
76439;SDS011;65274;44.982;20.060;2022-12-18T05:03:36;57.72;;;28.13;;
76439;SDS011;65274;44.982;20.060;2022-12-18T05:06:03;56.80;;;25.05;;
76439;SDS011;65274;44.982;20.060;2022-12-18T05:08:29;51.30;;;25.23;;
76439;SDS011;65274;44.982;20.060;2022-12-18T05:13:47;75.38;;;34.95;;
76439;SDS011;65274;44.982;20.060;2022-12-18T05:16:13;85.22;;;37.42;;
76439;SDS011;65274;44.982;20.060;2022-12-18T05:18:40;82.65;;;39.00;;
76439;SDS011;65274;44.982;20.060;2022-12-18T05:21:06;57.55;;;29.45;;
76439;SDS011;65274;44.982;20.060;2022-12-18T05:23:35;61.45;;;28.48;;
76439;SDS011;65274;44.982;20.060;2022-12-18T05:26:02;51.30;;;25.73;;
76439;SDS011;65274;44.982;20.060;2022-12-18T05:28:29;58.53;;;29.45;;
76439;SDS011;65274;44.982;20.060;2022-12-18T05:30:56;58.30;;;27.90;;
76439;SDS011;65274;44.982;20.060;2022-12-18T05:33:23;69.28;;;33.03;;
76439;SDS011;65274;44.982;20.060;2022-12-18T05:35:50;69.68;;;36.03;;
76439;SDS011;65274;44.982;20.060;2022-12-18T05:38:17;56.42;;;28.50;;
76439;SDS011;65274;44.982;20.060;2022-12-18T05:40:43;51.90;;;24.42;;
76439;SDS011;65274;44.982;20.060;2022-12-18T05:43:09;45.78;;;22.75;;
76439;SDS011;65274;44.982;20.060;2022-12-18T05:45:39;50.97;;;26.23;;
76439;SDS011;65274;44.982;20.060;2022-12-18T05:48:06;50.53;;;26.25;;
76439;SDS011;65274;44.982;20.060;2022-12-18T05:50:35;53.30;;;26.92;;
76439;SDS011;65274;44.982;20.060;2022-12-18T05:53:02;57.50;;;24.70;;
76439;SDS011;65274;44.982;20.060;2022-12-18T05:55:28;45.50;;;21.95;;
76439;SDS011;65274;44.982;20.060;2022-12-18T05:57:54;46.85;;;25.05;;
76439;SDS011;65274;44.982;20.060;2022-12-18T06:00:20;47.45;;;22.50;;
76439;SDS011;65274;44.982;20.060;2022-12-18T06:02:47;41.72;;;21.30;;
76439;SDS011;65274;44.982;20.060;2022-12-18T06:05:13;48.65;;;26.35;;
76439;SDS011;65274;44.982;20.060;2022-12-18T06:07:39;54.35;;;24.02;;
76439;SDS011;65274;44.982;20.060;2022-12-18T06:10:05;46.22;;;23.23;;
76439;SDS011;65274;44.982;20.060;2022-12-18T06:12:31;46.75;;;23.98;;
76439;SDS011;65274;44.982;20.060;2022-12-18T06:14:58;61.92;;;28.13;;
76439;SDS011;65274;44.982;20.060;2022-12-18T06:17:28;44.97;;;22.65;;
76439;SDS011;65274;44.982;20.060;2022-12-18T06:19:54;47.55;;;25.30;;
76439;SDS011;65274;44.982;20.060;2022-12-18T06:22:20;50.50;;;27.55;;
76439;SDS011;65274;44.982;20.060;2022-12-18T06:24:46;49.53;;;25.02;;
76439;SDS011;65274;44.982;20.060;2022-12-18T06:27:12;58.05;;;27.77;;
76439;SDS011;65274;44.982;20.060;2022-12-18T06:29:39;53.40;;;26.23;;
76439;SDS011;65274;44.982;20.060;2022-12-18T06:32:05;52.85;;;23.88;;
76439;SDS011;65274;44.982;20.060;2022-12-18T06:34:31;44.78;;;24.48;;
76439;SDS011;65274;44.982;20.060;2022-12-18T06:36:57;48.92;;;24.20;;
76439;SDS011;65274;44.982;20.060;2022-12-18T06:39:23;53.78;;;26.67;;
76439;SDS011;65274;44.982;20.060;2022-12-18T06:41:50;50.50;;;24.27;;
76439;SDS011;65274;44.982;20.060;2022-12-18T06:44:16;55.85;;;27.00;;
76439;SDS011;65274;44.982;20.060;2022-12-18T06:46:42;55.22;;;26.67;;
76439;SDS011;65274;44.982;20.060;2022-12-18T06:49:08;45.85;;;23.88;;
76439;SDS011;65274;44.982;20.060;2022-12-18T06:51:34;49.58;;;26.73;;
76439;SDS011;65274;44.982;20.060;2022-12-18T06:54:00;59.53;;;28.83;;
76439;SDS011;65274;44.982;20.060;2022-12-18T06:56:27;52.42;;;25.95;;
76439;SDS011;65274;44.982;20.060;2022-12-18T06:58:53;59.97;;;27.45;;
76439;SDS011;65274;44.982;20.060;2022-12-18T07:01:20;57.55;;;27.90;;
76439;SDS011;65274;44.982;20.060;2022-12-18T07:03:46;59.78;;;28.42;;
76439;SDS011;65274;44.982;20.060;2022-12-18T07:06:13;56.00;;;28.45;;
76439;SDS011;65274;44.982;20.060;2022-12-18T07:08:39;52.60;;;27.15;;
76439;SDS011;65274;44.982;20.060;2022-12-18T07:11:05;56.40;;;28.17;;
76439;SDS011;65274;44.982;20.060;2022-12-18T07:13:32;53.90;;;26.63;;
76439;SDS011;65274;44.982;20.060;2022-12-18T07:16:08;56.22;;;27.88;;
76439;SDS011;65274;44.982;20.060;2022-12-18T07:18:34;53.58;;;26.83;;
76439;SDS011;65274;44.982;20.060;2022-12-18T07:21:04;53.22;;;25.13;;
76439;SDS011;65274;44.982;20.060;2022-12-18T07:23:31;53.53;;;26.33;;
76439;SDS011;65274;44.982;20.060;2022-12-18T07:26:01;52.00;;;26.17;;
76439;SDS011;65274;44.982;20.060;2022-12-18T07:28:27;54.92;;;29.33;;
76439;SDS011;65274;44.982;20.060;2022-12-18T07:30:53;74.93;;;36.13;;
76439;SDS011;65274;44.982;20.060;2022-12-18T07:33:19;91.82;;;47.38;;
76439;SDS011;65274;44.982;20.060;2022-12-18T07:35:45;103.32;;;47.47;;
76439;SDS011;65274;44.982;20.060;2022-12-18T07:38:12;85.55;;;54.90;;
76439;SDS011;65274;44.982;20.060;2022-12-18T07:40:38;95.88;;;57.35;;
76439;SDS011;65274;44.982;20.060;2022-12-18T07:43:04;100.55;;;53.22;;
76439;SDS011;65274;44.982;20.060;2022-12-18T07:45:30;69.63;;;40.03;;
76439;SDS011;65274;44.982;20.060;2022-12-18T07:47:56;67.07;;;37.33;;
76439;SDS011;65274;44.982;20.060;2022-12-18T07:50:22;68.43;;;37.40;;
76439;SDS011;65274;44.982;20.060;2022-12-18T07:52:49;98.57;;;50.85;;
76439;SDS011;65274;44.982;20.060;2022-12-18T07:55:15;199.32;;;108.82;;
76439;SDS011;65274;44.982;20.060;2022-12-18T07:57:41;317.35;;;150.13;;
76439;SDS011;65274;44.982;20.060;2022-12-18T08:00:07;348.17;;;156.10;;
76439;SDS011;65274;44.982;20.060;2022-12-18T08:02:33;288.73;;;127.18;;
76439;SDS011;65274;44.982;20.060;2022-12-18T08:04:59;580.30;;;354.67;;
76439;SDS011;65274;44.982;20.060;2022-12-18T08:07:25;144.57;;;78.93;;
76439;SDS011;65274;44.982;20.060;2022-12-18T08:09:51;120.13;;;84.00;;
76439;SDS011;65274;44.982;20.060;2022-12-18T08:12:17;67.45;;;38.50;;
76439;SDS011;65274;44.982;20.060;2022-12-18T08:14:43;61.38;;;35.40;;
76439;SDS011;65274;44.982;20.060;2022-12-18T08:17:09;59.75;;;36.00;;
76439;SDS011;65274;44.982;20.060;2022-12-18T08:19:36;54.47;;;29.85;;
76439;SDS011;65274;44.982;20.060;2022-12-18T08:22:02;54.00;;;27.98;;
76439;SDS011;65274;44.982;20.060;2022-12-18T08:24:28;56.90;;;29.02;;
76439;SDS011;65274;44.982;20.060;2022-12-18T08:26:54;57.08;;;29.17;;
76439;SDS011;65274;44.982;20.060;2022-12-18T08:29:22;57.75;;;30.20;;
76439;SDS011;65274;44.982;20.060;2022-12-18T08:31:48;54.85;;;26.20;;
76439;SDS011;65274;44.982;20.060;2022-12-18T08:34:14;47.78;;;24.70;;
76439;SDS011;65274;44.982;20.060;2022-12-18T08:36:40;50.85;;;27.25;;
76439;SDS011;65274;44.982;20.060;2022-12-18T08:39:06;53.25;;;29.05;;
76439;SDS011;65274;44.982;20.060;2022-12-18T08:41:32;56.05;;;30.02;;
76439;SDS011;65274;44.982;20.060;2022-12-18T08:43:58;53.92;;;28.25;;
76439;SDS011;65274;44.982;20.060;2022-12-18T08:46:43;95.30;;;59.90;;
76439;SDS011;65274;44.982;20.060;2022-12-18T08:49:10;96.60;;;56.22;;
76439;SDS011;65274;44.982;20.060;2022-12-18T08:51:37;135.30;;;72.05;;
76439;SDS011;65274;44.982;20.060;2022-12-18T08:54:03;71.80;;;41.03;;
76439;SDS011;65274;44.982;20.060;2022-12-18T08:56:30;102.45;;;62.45;;
76439;SDS011;65274;44.982;20.060;2022-12-18T08:58:56;144.50;;;79.78;;
76439;SDS011;65274;44.982;20.060;2022-12-18T09:01:22;71.65;;;42.67;;
76439;SDS011;65274;44.982;20.060;2022-12-18T09:03:49;57.63;;;33.38;;
76439;SDS011;65274;44.982;20.060;2022-12-18T09:06:16;56.78;;;32.97;;
76439;SDS011;65274;44.982;20.060;2022-12-18T09:08:43;78.57;;;42.83;;
76439;SDS011;65274;44.982;20.060;2022-12-18T09:11:11;226.13;;;106.95;;
76439;SDS011;65274;44.982;20.060;2022-12-18T09:13:38;317.77;;;145.00;;
76439;SDS011;65274;44.982;20.060;2022-12-18T09:16:04;389.75;;;182.73;;
76439;SDS011;65274;44.982;20.060;2022-12-18T09:18:30;272.30;;;129.18;;
76439;SDS011;65274;44.982;20.060;2022-12-18T09:20:56;501.38;;;262.85;;
76439;SDS011;65274;44.982;20.060;2022-12-18T09:23:22;145.45;;;70.25;;
76439;SDS011;65274;44.982;20.060;2022-12-18T09:25:48;258.67;;;118.05;;
76439;SDS011;65274;44.982;20.060;2022-12-18T09:28:15;262.48;;;121.82;;
76439;SDS011;65274;44.982;20.060;2022-12-18T09:30:43;295.10;;;129.10;;
76439;SDS011;65274;44.982;20.060;2022-12-18T09:33:09;104.40;;;51.15;;
76439;SDS011;65274;44.982;20.060;2022-12-18T09:35:36;355.17;;;171.00;;
76439;SDS011;65274;44.982;20.060;2022-12-18T09:38:02;191.00;;;95.18;;
76439;SDS011;65274;44.982;20.060;2022-12-18T09:40:29;223.38;;;109.88;;
76439;SDS011;65274;44.982;20.060;2022-12-18T09:42:59;87.05;;;48.65;;
76439;SDS011;65274;44.982;20.060;2022-12-18T09:45:26;151.10;;;80.90;;
76439;SDS011;65274;44.982;20.060;2022-12-18T09:47:53;75.97;;;44.75;;
76439;SDS011;65274;44.982;20.060;2022-12-18T09:50:28;115.40;;;66.07;;
76439;SDS011;65274;44.982;20.060;2022-12-18T09:52:56;144.82;;;90.10;;
76439;SDS011;65274;44.982;20.060;2022-12-18T09:55:45;203.60;;;127.82;;
76439;SDS011;65274;44.982;20.060;2022-12-18T10:00:35;56.15;;;36.00;;
76439;SDS011;65274;44.982;20.060;2022-12-18T10:03:08;44.45;;;26.05;;
76439;SDS011;65274;44.982;20.060;2022-12-18T10:11:03;90.45;;;57.47;;
76439;SDS011;65274;44.982;20.060;2022-12-18T10:13:38;80.15;;;45.42;;
76439;SDS011;65274;44.982;20.060;2022-12-18T10:16:09;67.88;;;38.95;;
76439;SDS011;65274;44.982;20.060;2022-12-18T10:21:34;129.98;;;72.63;;
76439;SDS011;65274;44.982;20.060;2022-12-18T10:26:29;59.33;;;32.45;;
76439;SDS011;65274;44.982;20.060;2022-12-18T10:28:57;83.32;;;52.55;;
76439;SDS011;65274;44.982;20.060;2022-12-18T10:31:24;73.88;;;42.75;;
76439;SDS011;65274;44.982;20.060;2022-12-18T10:33:50;59.97;;;32.88;;
76439;SDS011;65274;44.982;20.060;2022-12-18T10:36:17;53.00;;;26.42;;
76439;SDS011;65274;44.982;20.060;2022-12-18T10:38:43;52.92;;;26.98;;
76439;SDS011;65274;44.982;20.060;2022-12-18T10:43:47;192.63;;;82.97;;
76439;SDS011;65274;44.982;20.060;2022-12-18T10:46:17;54.85;;;28.92;;
76439;SDS011;65274;44.982;20.060;2022-12-18T10:53:57;56.45;;;29.17;;
76439;SDS011;65274;44.982;20.060;2022-12-18T10:56:24;58.38;;;30.55;;
76439;SDS011;65274;44.982;20.060;2022-12-18T10:59:01;114.90;;;60.80;;
76439;SDS011;65274;44.982;20.060;2022-12-18T11:01:32;60.90;;;32.03;;
76439;SDS011;65274;44.982;20.060;2022-12-18T11:04:13;56.20;;;27.50;;
76439;SDS011;65274;44.982;20.060;2022-12-18T11:09:21;57.03;;;27.85;;
76439;SDS011;65274;44.982;20.060;2022-12-18T11:11:51;62.22;;;29.92;;
76439;SDS011;65274;44.982;20.060;2022-12-18T11:14:21;66.30;;;31.63;;
76439;SDS011;65274;44.982;20.060;2022-12-18T11:16:49;60.70;;;30.85;;
76439;SDS011;65274;44.982;20.060;2022-12-18T11:21:48;56.20;;;29.25;;
76439;SDS011;65274;44.982;20.060;2022-12-18T11:24:22;50.60;;;27.25;;
76439;SDS011;65274;44.982;20.060;2022-12-18T11:26:51;59.90;;;27.92;;
76439;SDS011;65274;44.982;20.060;2022-12-18T11:29:18;52.22;;;26.48;;
76439;SDS011;65274;44.982;20.060;2022-12-18T11:31:44;57.25;;;29.95;;
76439;SDS011;65274;44.982;20.060;2022-12-18T11:34:29;81.82;;;36.90;;
76439;SDS011;65274;44.982;20.060;2022-12-18T11:36:57;53.70;;;26.80;;
76439;SDS011;65274;44.982;20.060;2022-12-18T11:39:29;64.03;;;37.30;;
76439;SDS011;65274;44.982;20.060;2022-12-18T11:42:01;57.55;;;31.75;;
76439;SDS011;65274;44.982;20.060;2022-12-18T11:44:45;49.45;;;26.33;;
76439;SDS011;65274;44.982;20.060;2022-12-18T11:47:25;55.65;;;29.88;;
76439;SDS011;65274;44.982;20.060;2022-12-18T11:49:53;70.10;;;34.65;;
76439;SDS011;65274;44.982;20.060;2022-12-18T11:52:55;66.68;;;32.33;;
76439;SDS011;65274;44.982;20.060;2022-12-18T12:00:24;69.15;;;35.15;;
76439;SDS011;65274;44.982;20.060;2022-12-18T12:18:39;100.40;;;47.42;;
76439;SDS011;65274;44.982;20.060;2022-12-18T12:21:54;122.95;;;55.67;;
76439;SDS011;65274;44.982;20.060;2022-12-18T12:24:01;70.68;;;36.05;;
76439;SDS011;65274;44.982;20.060;2022-12-18T12:26:38;59.22;;;29.85;;
76439;SDS011;65274;44.982;20.060;2022-12-18T12:31:50;60.60;;;31.52;;
76439;SDS011;65274;44.982;20.060;2022-12-18T12:39:32;64.63;;;32.75;;
76439;SDS011;65274;44.982;20.060;2022-12-18T12:42:00;60.17;;;30.42;;
76439;SDS011;65274;44.982;20.060;2022-12-18T12:44:48;77.95;;;34.97;;
76439;SDS011;65274;44.982;20.060;2022-12-18T12:47:23;80.38;;;39.58;;
76439;SDS011;65274;44.982;20.060;2022-12-18T12:49:51;102.47;;;48.22;;
76439;SDS011;65274;44.982;20.060;2022-12-18T12:52:21;84.80;;;41.80;;
76439;SDS011;65274;44.982;20.060;2022-12-18T12:54:52;87.40;;;37.67;;
76439;SDS011;65274;44.982;20.060;2022-12-18T12:57:20;140.95;;;67.10;;
76439;SDS011;65274;44.982;20.060;2022-12-18T13:00:02;175.60;;;75.78;;
76439;SDS011;65274;44.982;20.060;2022-12-18T13:02:35;149.55;;;63.90;;
76439;SDS011;65274;44.982;20.060;2022-12-18T13:05:06;126.40;;;54.17;;
76439;SDS011;65274;44.982;20.060;2022-12-18T13:07:37;208.55;;;90.07;;
76439;SDS011;65274;44.982;20.060;2022-12-18T13:15:23;121.15;;;53.47;;
76439;SDS011;65274;44.982;20.060;2022-12-18T13:17:56;389.07;;;172.93;;
76439;SDS011;65274;44.982;20.060;2022-12-18T13:20:32;124.32;;;55.58;;
76439;SDS011;65274;44.982;20.060;2022-12-18T13:22:59;108.40;;;51.47;;
76439;SDS011;65274;44.982;20.060;2022-12-18T13:25:33;77.95;;;36.58;;
76439;SDS011;65274;44.982;20.060;2022-12-18T13:28:00;77.78;;;37.22;;
76439;SDS011;65274;44.982;20.060;2022-12-18T13:38:22;359.85;;;148.95;;
76439;SDS011;65274;44.982;20.060;2022-12-18T13:43:37;93.13;;;44.58;;
76439;SDS011;65274;44.982;20.060;2022-12-18T13:46:02;76.40;;;35.97;;
76439;SDS011;65274;44.982;20.060;2022-12-18T13:48:30;101.70;;;45.50;;
76439;SDS011;65274;44.982;20.060;2022-12-18T13:50:59;202.70;;;81.45;;
76439;SDS011;65274;44.982;20.060;2022-12-18T13:53:30;210.48;;;97.65;;
76439;SDS011;65274;44.982;20.060;2022-12-18T13:55:57;315.75;;;127.47;;
76439;SDS011;65274;44.982;20.060;2022-12-18T13:58:23;225.63;;;116.90;;
76439;SDS011;65274;44.982;20.060;2022-12-18T14:00:50;83.63;;;41.75;;
76439;SDS011;65274;44.982;20.060;2022-12-18T14:03:18;147.88;;;72.60;;
76439;SDS011;65274;44.982;20.060;2022-12-18T14:05:44;72.57;;;38.47;;
76439;SDS011;65274;44.982;20.060;2022-12-18T14:08:12;72.75;;;40.65;;
76439;SDS011;65274;44.982;20.060;2022-12-18T14:10:40;75.63;;;39.58;;
76439;SDS011;65274;44.982;20.060;2022-12-18T14:13:06;84.93;;;39.42;;
76439;SDS011;65274;44.982;20.060;2022-12-18T14:15:35;86.63;;;42.77;;
76439;SDS011;65274;44.982;20.060;2022-12-18T14:18:03;91.65;;;44.38;;
76439;SDS011;65274;44.982;20.060;2022-12-18T14:20:40;117.95;;;52.45;;
76439;SDS011;65274;44.982;20.060;2022-12-18T14:23:24;85.65;;;43.97;;
76439;SDS011;65274;44.982;20.060;2022-12-18T14:25:51;90.18;;;38.13;;
76439;SDS011;65274;44.982;20.060;2022-12-18T14:28:17;120.47;;;61.10;;
76439;SDS011;65274;44.982;20.060;2022-12-18T14:30:44;107.82;;;54.33;;
76439;SDS011;65274;44.982;20.060;2022-12-18T14:35:51;111.90;;;49.80;;
76439;SDS011;65274;44.982;20.060;2022-12-18T14:40:47;98.60;;;46.10;;
76439;SDS011;65274;44.982;20.060;2022-12-18T14:43:13;75.95;;;37.78;;
76439;SDS011;65274;44.982;20.060;2022-12-18T14:45:41;72.53;;;34.67;;
76439;SDS011;65274;44.982;20.060;2022-12-18T14:50:40;77.45;;;37.30;;
76439;SDS011;65274;44.982;20.060;2022-12-18T14:53:19;103.22;;;47.65;;
76439;SDS011;65274;44.982;20.060;2022-12-18T14:55:46;113.72;;;52.13;;
76439;SDS011;65274;44.982;20.060;2022-12-18T14:58:14;124.25;;;55.13;;
76439;SDS011;65274;44.982;20.060;2022-12-18T15:00:41;110.82;;;48.97;;
76439;SDS011;65274;44.982;20.060;2022-12-18T15:03:08;145.82;;;64.25;;
76439;SDS011;65274;44.982;20.060;2022-12-18T15:05:34;127.93;;;59.75;;
76439;SDS011;65274;44.982;20.060;2022-12-18T15:08:01;102.88;;;46.10;;
76439;SDS011;65274;44.982;20.060;2022-12-18T15:10:33;87.30;;;41.58;;
76439;SDS011;65274;44.982;20.060;2022-12-18T15:20:48;77.97;;;38.67;;
76439;SDS011;65274;44.982;20.060;2022-12-18T15:33:27;82.50;;;38.53;;
76439;SDS011;65274;44.982;20.060;2022-12-18T15:35:59;88.07;;;43.38;;
76439;SDS011;65274;44.982;20.060;2022-12-18T15:38:25;106.72;;;49.33;;
76439;SDS011;65274;44.982;20.060;2022-12-18T15:40:52;68.25;;;35.72;;
76439;SDS011;65274;44.982;20.060;2022-12-18T15:43:20;79.40;;;37.40;;
76439;SDS011;65274;44.982;20.060;2022-12-18T15:45:59;77.65;;;37.58;;
76439;SDS011;65274;44.982;20.060;2022-12-18T15:48:26;74.53;;;35.75;;
76439;SDS011;65274;44.982;20.060;2022-12-18T15:50:52;77.90;;;37.13;;
76439;SDS011;65274;44.982;20.060;2022-12-18T15:53:20;81.53;;;37.85;;
76439;SDS011;65274;44.982;20.060;2022-12-18T15:55:46;87.78;;;39.10;;
76439;SDS011;65274;44.982;20.060;2022-12-18T15:58:31;129.15;;;63.38;;
76439;SDS011;65274;44.982;20.060;2022-12-18T16:00:58;135.45;;;64.20;;
76439;SDS011;65274;44.982;20.060;2022-12-18T16:03:25;116.05;;;59.00;;
76439;SDS011;65274;44.982;20.060;2022-12-18T16:05:51;100.45;;;48.70;;
76439;SDS011;65274;44.982;20.060;2022-12-18T16:08:17;107.38;;;50.10;;
76439;SDS011;65274;44.982;20.060;2022-12-18T16:10:43;92.82;;;46.22;;
76439;SDS011;65274;44.982;20.060;2022-12-18T16:13:13;91.75;;;41.40;;
76439;SDS011;65274;44.982;20.060;2022-12-18T16:15:41;104.40;;;49.50;;
76439;SDS011;65274;44.982;20.060;2022-12-18T16:18:07;104.18;;;46.58;;
76439;SDS011;65274;44.982;20.060;2022-12-18T16:20:33;92.57;;;44.33;;
76439;SDS011;65274;44.982;20.060;2022-12-18T16:22:59;84.88;;;40.15;;
76439;SDS011;65274;44.982;20.060;2022-12-18T16:25:27;93.00;;;42.25;;
76439;SDS011;65274;44.982;20.060;2022-12-18T16:27:53;92.40;;;42.90;;
76439;SDS011;65274;44.982;20.060;2022-12-18T16:30:29;103.15;;;47.50;;